Time;durP1;ratioP1;P1;durP2;ratioP2;P2;SDS_P1;SDS_P2;PMS_P1;PMS_P2;Temp;Humidity;BMP_temperature;BMP_pressure;BME280_temperature;BME280_humidity;BME280_pressure;Samples;Min_cycle;Max_cycle;Signal;HPM_P1;HPM_P2
2024/03/21 00:01:58;;;;;;;7.95;3.42;;;;;;;;;;5057187;28;20024;-79
2024/03/21 00:04:43;;;;;;;8.13;3.58;;;;;;;;;;5086698;28;20407;-77
2024/03/21 00:07:28;;;;;;;8.55;3.35;;;;;;;;;;5070092;28;20034;-79
2024/03/21 00:10:14;;;;;;;6.65;3.08;;;;;;;;;;5066862;28;20112;-79
2024/03/21 00:13:00;;;;;;;6.75;3.60;;;;;;;;;;5069356;28;20035;-79
2024/03/21 00:15:45;;;;;;;6.45;3.50;;;;;;;;;;5086609;28;20032;-78
2024/03/21 00:18:31;;;;;;;7.80;3.20;;;;;;;;;;5071283;28;20099;-78
2024/03/21 00:21:16;;;;;;;8.48;3.85;;;;;;;;;;5072533;28;20054;-78
2024/03/21 00:24:02;;;;;;;6.78;2.78;;;;;;;;;;5071962;28;20109;-78
2024/03/21 00:26:49;;;;;;;9.68;4.00;;;;;;;;;;5072188;28;20039;-78
2024/03/21 00:29:35;;;;;;;7.20;2.92;;;;;;;;;;5072320;28;20034;-78
2024/03/21 00:32:20;;;;;;;9.23;2.88;;;;;;;;;;5072212;28;20043;-79
2024/03/21 00:35:06;;;;;;;6.85;3.00;;;;;;;;;;5070585;28;20020;-78
2024/03/21 00:37:51;;;;;;;9.15;4.93;;;;;;;;;;5072097;28;20086;-77
2024/03/21 00:40:37;;;;;;;5.63;2.90;;;;;;;;;;5072246;28;20088;-78
2024/03/21 00:43:22;;;;;;;6.88;2.85;;;;;;;;;;5072383;28;20031;-78
2024/03/21 00:46:10;;;;;;;5.30;3.17;;;;;;;;;;5072156;28;20089;-80
2024/03/21 00:48:55;;;;;;;5.13;2.40;;;;;;;;;;5071890;28;20023;-79
2024/03/21 00:51:41;;;;;;;8.90;3.08;;;;;;;;;;5063947;28;20107;-79
2024/03/21 00:54:26;;;;;;;7.20;2.83;;;;;;;;;;5051846;28;20039;-79
2024/03/21 00:57:12;;;;;;;6.15;3.10;;;;;;;;;;5052062;28;20073;-79
2024/03/21 00:59:57;;;;;;;6.80;2.75;;;;;;;;;;5052128;28;20033;-79
2024/03/21 01:02:42;;;;;;;5.93;2.47;;;;;;;;;;5052243;28;20024;-79
2024/03/21 01:05:28;;;;;;;7.05;3.05;;;;;;;;;;5051800;28;20077;-79
2024/03/21 01:08:13;;;;;;;5.95;3.00;;;;;;;;;;5082606;28;20032;-79
2024/03/21 01:10:58;;;;;;;6.75;2.95;;;;;;;;;;5085686;28;20031;-79
2024/03/21 01:13:44;;;;;;;8.52;3.08;;;;;;;;;;5071092;28;20036;-80
2024/03/21 01:16:29;;;;;;;8.40;3.60;;;;;;;;;;5071287;28;20133;-80
2024/03/21 01:19:15;;;;;;;6.85;3.45;;;;;;;;;;5071250;28;20395;-80
2024/03/21 01:22:00;;;;;;;7.93;3.17;;;;;;;;;;5069526;28;20581;-79
2024/03/21 01:24:46;;;;;;;5.88;3.30;;;;;;;;;;5069840;28;20511;-78
2024/03/21 01:27:32;;;;;;;6.75;2.90;;;;;;;;;;5070926;28;20031;-78
2024/03/21 01:30:17;;;;;;;5.63;3.30;;;;;;;;;;5071669;28;20020;-79
2024/03/21 01:33:05;;;;;;;7.00;3.55;;;;;;;;;;5071167;28;20020;-78
2024/03/21 01:35:50;;;;;;;8.32;3.17;;;;;;;;;;5070707;28;20027;-79
2024/03/21 01:38:36;;;;;;;6.45;3.13;;;;;;;;;;5071717;28;20035;-79
2024/03/21 01:41:22;;;;;;;5.22;2.90;;;;;;;;;;5069544;28;20039;-78
2024/03/21 01:44:14;;;;;;;5.95;3.10;;;;;;;;;;5069654;28;20028;-78
2024/03/21 01:46:59;;;;;;;6.88;3.03;;;;;;;;;;5071469;28;20031;-78
2024/03/21 01:49:44;;;;;;;5.57;3.03;;;;;;;;;;5069521;28;20111;-78
2024/03/21 01:52:30;;;;;;;5.63;3.15;;;;;;;;;;5071342;28;20366;-79
2024/03/21 01:55:15;;;;;;;5.72;2.50;;;;;;;;;;5071068;28;20082;-78
2024/03/21 01:58:00;;;;;;;5.05;2.85;;;;;;;;;;5071185;28;20073;-79
2024/03/21 02:00:49;;;;;;;4.95;2.53;;;;;;;;;;5084853;28;20119;-79
2024/03/21 02:03:35;;;;;;;5.88;3.13;;;;;;;;;;5070952;28;20030;-79
2024/03/21 02:06:20;;;;;;;6.13;2.60;;;;;;;;;;5071277;28;20093;-79
2024/03/21 02:09:09;;;;;;;6.82;2.90;;;;;;;;;;5067506;28;20044;-78
2024/03/21 02:11:55;;;;;;;6.45;2.67;;;;;;;;;;5070346;28;20031;-78
2024/03/21 02:14:40;;;;;;;6.40;3.10;;;;;;;;;;5070517;28;20047;-79
2024/03/21 02:17:26;;;;;;;12.40;4.10;;;;;;;;;;5070680;28;20024;-79
2024/03/21 02:20:14;;;;;;;7.78;2.75;;;;;;;;;;5070761;28;20020;-78
2024/03/21 02:23:00;;;;;;;6.03;3.38;;;;;;;;;;5070958;28;20035;-78
2024/03/21 02:25:45;;;;;;;5.30;2.88;;;;;;;;;;5062681;28;20024;-79
2024/03/21 02:28:30;;;;;;;7.75;2.88;;;;;;;;;;5065370;28;20451;-79
2024/03/21 02:31:22;;;;;;;4.93;3.15;;;;;;;;;;5085069;28;20024;-79
2024/03/21 02:34:07;;;;;;;5.32;2.67;;;;;;;;;;5088721;28;20032;-80
2024/03/21 02:36:53;;;;;;;5.20;3.15;;;;;;;;;;5088732;28;20510;-78
2024/03/21 02:39:38;;;;;;;3.75;2.45;;;;;;;;;;5086558;28;20043;-78
2024/03/21 02:42:24;;;;;;;5.53;2.92;;;;;;;;;;5065045;28;20025;-78
2024/03/21 02:45:09;;;;;;;4.80;2.63;;;;;;;;;;5054526;28;20024;-80
2024/03/21 02:47:54;;;;;;;7.20;2.78;;;;;;;;;;5054024;28;20028;-77
2024/03/21 02:50:39;;;;;;;5.32;2.92;;;;;;;;;;5054254;28;20569;-78
2024/03/21 02:53:24;;;;;;;6.03;2.90;;;;;;;;;;5054064;28;20475;-78
2024/03/21 02:56:10;;;;;;;4.97;2.85;;;;;;;;;;5053708;28;20028;-78
2024/03/21 02:58:58;;;;;;;7.80;3.10;;;;;;;;;;5052687;28;20060;-79
2024/03/21 03:01:43;;;;;;;6.32;2.67;;;;;;;;;;5069688;28;20025;-78
2024/03/21 03:04:29;;;;;;;8.40;3.50;;;;;;;;;;5062896;28;20077;-79
2024/03/21 03:07:14;;;;;;;6.13;3.10;;;;;;;;;;5077714;28;20055;-79
2024/03/21 03:09:59;;;;;;;6.10;2.65;;;;;;;;;;5077439;28;20026;-79
2024/03/21 03:12:44;;;;;;;5.15;2.80;;;;;;;;;;5091427;28;20024;-79
2024/03/21 03:15:30;;;;;;;4.53;2.88;;;;;;;;;;5091583;28;20038;-79
2024/03/21 03:18:15;;;;;;;5.75;2.70;;;;;;;;;;5063538;28;20024;-79
2024/03/21 03:21:00;;;;;;;5.55;2.45;;;;;;;;;;5074288;28;20119;-79
2024/03/21 03:23:46;;;;;;;5.40;2.70;;;;;;;;;;5070707;28;20042;-79
2024/03/21 03:26:31;;;;;;;5.82;2.85;;;;;;;;;;5057176;28;20037;-78
2024/03/21 03:29:16;;;;;;;4.10;2.60;;;;;;;;;;5070814;28;20021;-79
2024/03/21 03:32:03;;;;;;;4.05;2.80;;;;;;;;;;5057121;28;20032;-79
2024/03/21 03:37:52;;;;;;;6.18;2.80;;;;;;;;;;5070183;28;20031;-78
2024/03/21 03:40:38;;;;;;;4.95;2.33;;;;;;;;;;5076841;28;20159;-80
2024/03/21 03:43:23;;;;;;;4.18;2.70;;;;;;;;;;5076546;28;20027;-80
2024/03/21 03:46:08;;;;;;;9.20;3.33;;;;;;;;;;5090963;28;20028;-80
2024/03/21 03:48:54;;;;;;;7.63;3.13;;;;;;;;;;5076555;28;20036;-80
2024/03/21 03:51:39;;;;;;;4.38;2.63;;;;;;;;;;5077125;28;20166;-80
2024/03/21 03:54:24;;;;;;;7.00;2.80;;;;;;;;;;5075273;28;20027;-80
2024/03/21 03:57:09;;;;;;;4.30;2.63;;;;;;;;;;5076529;28;20040;-80
2024/03/21 03:59:55;;;;;;;6.65;3.22;;;;;;;;;;5076444;28;20027;-79
2024/03/21 04:02:44;;;;;;;7.97;2.67;;;;;;;;;;5074216;28;20188;-80
2024/03/21 04:05:29;;;;;;;3.28;2.28;;;;;;;;;;5069251;28;20051;-79
2024/03/21 04:08:14;;;;;;;7.10;3.35;;;;;;;;;;5063640;28;20422;-79
2024/03/21 04:10:59;;;;;;;9.23;2.90;;;;;;;;;;5051397;28;20198;-79
2024/03/21 04:13:46;;;;;;;4.68;2.50;;;;;;;;;;5053014;28;20119;-79
2024/03/21 04:16:31;;;;;;;8.05;2.90;;;;;;;;;;5052759;28;20061;-80
2024/03/21 04:19:17;;;;;;;7.70;3.35;;;;;;;;;;5053788;28;20074;-78
2024/03/21 04:22:02;;;;;;;3.75;2.55;;;;;;;;;;5084531;28;20032;-78
2024/03/21 04:24:47;;;;;;;4.93;2.63;;;;;;;;;;5072002;28;20024;-79
2024/03/21 04:27:33;;;;;;;5.13;2.80;;;;;;;;;;5072248;28;20032;-78
2024/03/21 04:30:18;;;;;;;5.72;2.80;;;;;;;;;;5072638;28;20026;-79
2024/03/21 04:33:03;;;;;;;4.30;2.97;;;;;;;;;;5072265;28;20076;-79
2024/03/21 04:35:49;;;;;;;4.82;3.08;;;;;;;;;;5058209;28;20028;-79
2024/03/21 04:38:34;;;;;;;4.45;2.47;;;;;;;;;;5061234;28;20115;-79
2024/03/21 04:41:20;;;;;;;6.43;3.40;;;;;;;;;;5051719;28;20025;-78
2024/03/21 04:44:05;;;;;;;8.05;3.30;;;;;;;;;;5051874;28;20082;-78
2024/03/21 04:46:50;;;;;;;5.32;3.08;;;;;;;;;;5051552;28;20447;-78
2024/03/21 04:49:35;;;;;;;4.60;2.80;;;;;;;;;;5051948;28;20029;-78
2024/03/21 04:52:22;;;;;;;5.07;2.88;;;;;;;;;;5051719;28;20152;-78
2024/03/21 04:55:07;;;;;;;8.02;3.22;;;;;;;;;;5036443;28;20021;-80
2024/03/21 04:57:52;;;;;;;6.72;2.97;;;;;;;;;;5067473;28;20123;-80
2024/03/21 05:00:38;;;;;;;7.22;3.38;;;;;;;;;;5071899;28;20027;-80
2024/03/21 05:03:23;;;;;;;7.63;2.42;;;;;;;;;;5085965;28;20059;-80
2024/03/21 05:06:08;;;;;;;6.40;2.28;;;;;;;;;;5071025;28;20031;-80
2024/03/21 05:08:53;;;;;;;7.28;2.60;;;;;;;;;;5057088;28;20028;-80
2024/03/21 05:11:39;;;;;;;7.95;2.88;;;;;;;;;;5059035;28;20218;-80
2024/03/21 05:14:24;;;;;;;3.55;2.03;;;;;;;;;;5071070;28;20048;-79
2024/03/21 05:17:10;;;;;;;7.72;2.28;;;;;;;;;;5065336;28;20040;-80
2024/03/21 05:19:55;;;;;;;8.13;2.95;;;;;;;;;;5063890;28;20024;-80
2024/03/21 05:22:40;;;;;;;3.65;2.33;;;;;;;;;;5065561;28;20025;-80
2024/03/21 05:25:26;;;;;;;4.68;2.70;;;;;;;;;;5067805;28;20414;-80
2024/03/21 05:28:11;;;;;;;4.32;2.63;;;;;;;;;;5091642;28;20424;-80
2024/03/21 05:30:56;;;;;;;5.30;2.22;;;;;;;;;;5072255;28;20139;-79
2024/03/21 05:33:41;;;;;;;3.78;2.33;;;;;;;;;;5065024;28;20399;-80
2024/03/21 05:36:29;;;;;;;8.93;2.65;;;;;;;;;;5063749;28;20103;-80
2024/03/21 05:39:14;;;;;;;7.57;3.10;;;;;;;;;;5070366;28;20035;-79
2024/03/21 05:41:59;;;;;;;3.83;2.50;;;;;;;;;;5061836;28;20077;-80
2024/03/21 05:44:44;;;;;;;5.40;2.60;;;;;;;;;;5065012;28;20036;-83
2024/03/21 05:47:30;;;;;;;7.22;3.28;;;;;;;;;;5051605;28;20052;-84
2024/03/21 05:50:15;;;;;;;7.50;3.53;;;;;;;;;;5065713;28;20027;-84
2024/03/21 05:53:00;;;;;;;7.78;3.72;;;;;;;;;;5079652;28;20021;-82
2024/03/21 05:55:52;;;;;;;9.38;3.65;;;;;;;;;;5068389;28;20031;-80
2024/03/21 05:58:38;;;;;;;5.22;3.30;;;;;;;;;;5057057;28;20024;-79
2024/03/21 06:01:23;;;;;;;6.95;2.85;;;;;;;;;;5076245;28;20012;-78
2024/03/21 06:04:08;;;;;;;6.57;3.05;;;;;;;;;;5063256;28;20123;-80
2024/03/21 06:06:53;;;;;;;5.82;2.65;;;;;;;;;;5053834;28;20024;-79
2024/03/21 06:09:39;;;;;;;5.13;2.70;;;;;;;;;;5071634;28;20523;-82
2024/03/21 06:12:24;;;;;;;6.80;3.55;;;;;;;;;;5060942;28;20185;-80
2024/03/21 06:15:09;;;;;;;5.70;2.97;;;;;;;;;;5065279;28;20068;-80
2024/03/21 06:17:55;;;;;;;6.55;2.90;;;;;;;;;;5072832;28;20114;-80
2024/03/21 06:20:40;;;;;;;4.10;2.58;;;;;;;;;;5079482;28;20399;-81
2024/03/21 06:23:25;;;;;;;4.15;2.50;;;;;;;;;;5065012;28;20438;-81
2024/03/21 06:26:10;;;;;;;5.70;2.53;;;;;;;;;;5068417;28;20024;-84
2024/03/21 06:28:56;;;;;;;6.68;2.85;;;;;;;;;;5064475;28;20028;-80
2024/03/21 06:31:41;;;;;;;6.22;2.55;;;;;;;;;;5068076;28;20035;-80
2024/03/21 06:34:26;;;;;;;7.90;3.00;;;;;;;;;;5064861;28;20038;-81
2024/03/21 06:37:13;;;;;;;6.20;2.75;;;;;;;;;;5058558;28;20039;-81
2024/03/21 06:39:58;;;;;;;6.07;2.75;;;;;;;;;;5075060;28;20066;-82
2024/03/21 06:42:43;;;;;;;6.53;2.78;;;;;;;;;;5045460;28;20071;-78
2024/03/21 06:45:28;;;;;;;10.27;3.40;;;;;;;;;;5061535;28;20515;-79
2024/03/21 06:48:14;;;;;;;8.52;3.90;;;;;;;;;;5057805;28;20465;-80
2024/03/21 06:51:00;;;;;;;11.38;3.22;;;;;;;;;;5067356;28;20051;-79
2024/03/21 06:53:45;;;;;;;10.75;3.13;;;;;;;;;;5057416;28;20118;-79
2024/03/21 06:56:31;;;;;;;8.98;3.20;;;;;;;;;;5066234;28;20024;-80
2024/03/21 06:59:16;;;;;;;12.93;4.03;;;;;;;;;;5054074;28;20031;-80
2024/03/21 07:02:02;;;;;;;10.90;3.90;;;;;;;;;;5057550;28;20016;-80
2024/03/21 07:04:48;;;;;;;7.25;3.53;;;;;;;;;;5073757;28;20185;-81
2024/03/21 07:07:33;;;;;;;9.35;4.22;;;;;;;;;;5073754;28;20106;-81
2024/03/21 07:10:19;;;;;;;11.00;4.70;;;;;;;;;;5081280;28;20037;-79
2024/03/21 07:13:04;;;;;;;12.10;4.60;;;;;;;;;;5081083;28;20384;-78
2024/03/21 07:15:49;;;;;;;10.95;5.15;;;;;;;;;;5087379;28;20032;-79
2024/03/21 07:18:35;;;;;;;11.65;5.63;;;;;;;;;;5094051;28;20128;-79
2024/03/21 07:21:23;;;;;;;9.52;4.45;;;;;;;;;;5079846;28;20032;-81
2024/03/21 07:24:08;;;;;;;12.10;5.43;;;;;;;;;;5075515;28;20079;-79
2024/03/21 07:26:53;;;;;;;12.52;5.50;;;;;;;;;;5101598;28;20053;-79
2024/03/21 07:29:39;;;;;;;14.85;5.30;;;;;;;;;;5089681;28;20069;-81
2024/03/21 07:32:24;;;;;;;14.85;5.75;;;;;;;;;;5075318;28;20112;-80
2024/03/21 07:35:09;;;;;;;12.52;5.47;;;;;;;;;;5085427;28;20089;-82
2024/03/21 07:37:54;;;;;;;15.30;5.85;;;;;;;;;;5074855;28;20024;-82
2024/03/21 07:40:40;;;;;;;11.65;5.88;;;;;;;;;;5065522;28;20020;-82
2024/03/21 07:43:26;;;;;;;11.88;5.30;;;;;;;;;;5055310;28;20060;-84
2024/03/21 07:46:12;;;;;;;10.00;6.05;;;;;;;;;;5059322;28;20012;-83
2024/03/21 07:48:58;;;;;;;13.40;5.18;;;;;;;;;;5072150;28;20406;-85
2024/03/21 07:51:44;;;;;;;11.75;5.80;;;;;;;;;;5074013;28;20077;-85
2024/03/21 07:54:29;;;;;;;11.65;5.57;;;;;;;;;;5076318;28;20036;-84
2024/03/21 07:57:18;;;;;;;13.15;5.97;;;;;;;;;;5052792;28;20017;-84
2024/03/21 08:00:05;;;;;;;13.50;6.80;;;;;;;;;;5066574;28;20026;-85
2024/03/21 08:02:51;;;;;;;14.23;5.88;;;;;;;;;;5068142;28;20035;-83
2024/03/21 08:05:36;;;;;;;16.77;5.50;;;;;;;;;;5077102;28;20016;-84
2024/03/21 08:08:21;;;;;;;12.80;5.32;;;;;;;;;;5063487;28;20069;-84
2024/03/21 08:11:06;;;;;;;13.00;6.03;;;;;;;;;;5073460;28;20031;-85
2024/03/21 08:13:51;;;;;;;14.70;6.10;;;;;;;;;;5073872;28;20047;-83
2024/03/21 08:16:37;;;;;;;12.85;6.70;;;;;;;;;;5085930;28;20027;-83
2024/03/21 08:19:22;;;;;;;15.02;5.78;;;;;;;;;;5066580;28;20099;-86
2024/03/21 08:22:07;;;;;;;12.63;6.30;;;;;;;;;;5071556;28;20020;-85
2024/03/21 08:24:53;;;;;;;12.10;6.70;;;;;;;;;;5071207;28;20032;-83
2024/03/21 08:27:38;;;;;;;13.90;6.25;;;;;;;;;;5086781;28;20039;-84
2024/03/21 08:30:24;;;;;;;11.73;5.60;;;;;;;;;;5072719;28;20107;-86
2024/03/21 08:33:13;;;;;;;11.43;4.95;;;;;;;;;;5069285;28;20036;-85
2024/03/21 08:35:59;;;;;;;10.13;5.13;;;;;;;;;;5071559;28;20028;-85
2024/03/21 08:38:44;;;;;;;8.52;4.55;;;;;;;;;;5062815;28;20024;-83
2024/03/21 08:41:29;;;;;;;10.35;4.60;;;;;;;;;;5086517;28;20074;-84
2024/03/21 08:44:14;;;;;;;7.95;3.17;;;;;;;;;;5072033;28;20115;-83
2024/03/21 08:47:00;;;;;;;4.80;2.80;;;;;;;;;;5052592;28;20040;-82
2024/03/21 08:49:45;;;;;;;5.95;2.75;;;;;;;;;;5071025;28;20020;-83
2024/03/21 08:52:30;;;;;;;4.60;2.70;;;;;;;;;;5072831;28;20058;-83
2024/03/21 08:55:15;;;;;;;5.60;3.03;;;;;;;;;;5072636;28;20044;-83
2024/03/21 08:58:01;;;;;;;5.38;3.10;;;;;;;;;;5052575;28;20023;-84
2024/03/21 09:00:47;;;;;;;6.88;2.75;;;;;;;;;;5061927;28;20024;-84
2024/03/21 09:03:32;;;;;;;4.55;3.00;;;;;;;;;;5086560;28;20024;-84
2024/03/21 09:06:18;;;;;;;6.82;3.08;;;;;;;;;;5072044;28;20123;-84
2024/03/21 09:09:05;;;;;;;6.70;3.38;;;;;;;;;;5071722;28;20107;-84
2024/03/21 09:11:53;;;;;;;6.57;3.58;;;;;;;;;;5086004;28;20035;-82
2024/03/21 09:14:38;;;;;;;9.60;3.47;;;;;;;;;;5062232;28;20049;-85
2024/03/21 09:17:24;;;;;;;3.72;2.80;;;;;;;;;;5067094;28;20098;-83
2024/03/21 09:20:09;;;;;;;4.40;2.75;;;;;;;;;;5072016;28;20027;-86
2024/03/21 09:22:54;;;;;;;4.90;2.85;;;;;;;;;;5086465;28;20035;-85
2024/03/21 09:25:39;;;;;;;5.25;3.00;;;;;;;;;;5058456;28;20026;-84
2024/03/21 09:28:25;;;;;;;7.00;3.70;;;;;;;;;;5077498;28;20065;-83
2024/03/21 09:31:10;;;;;;;5.82;3.88;;;;;;;;;;5072163;28;20024;-85
2024/03/21 09:33:57;;;;;;;8.45;3.85;;;;;;;;;;5072043;28;20027;-85
2024/03/21 09:36:48;;;;;;;5.22;3.15;;;;;;;;;;5066376;28;20060;-85
2024/03/21 09:39:33;;;;;;;7.93;3.47;;;;;;;;;;5082349;28;20024;-84
2024/03/21 09:42:19;;;;;;;7.30;3.70;;;;;;;;;;5071816;28;20020;-84
2024/03/21 09:45:07;;;;;;;9.60;3.78;;;;;;;;;;5085695;28;20042;-84
2024/03/21 09:47:53;;;;;;;6.80;3.30;;;;;;;;;;5084676;28;20036;-84
2024/03/21 09:50:41;;;;;;;5.93;3.15;;;;;;;;;;5059136;28;20456;-84
2024/03/21 09:53:27;;;;;;;4.80;2.90;;;;;;;;;;5078959;28;20562;-84
2024/03/21 09:56:14;;;;;;;5.03;2.97;;;;;;;;;;5071161;28;20023;-82
2024/03/21 09:59:00;;;;;;;5.65;3.00;;;;;;;;;;5071543;28;20046;-81
2024/03/21 10:01:46;;;;;;;7.85;3.35;;;;;;;;;;5085282;28;20078;-82
2024/03/21 10:04:39;;;;;;;5.55;3.38;;;;;;;;;;5055395;28;20082;-83
2024/03/21 10:07:25;;;;;;;5.95;3.17;;;;;;;;;;5065858;28;20108;-81
2024/03/21 10:10:10;;;;;;;9.05;4.05;;;;;;;;;;5064132;28;20016;-79
2024/03/21 10:12:56;;;;;;;6.40;3.50;;;;;;;;;;5057412;28;20024;-79
2024/03/21 10:15:41;;;;;;;5.97;3.65;;;;;;;;;;5058802;28;20549;-77
2024/03/21 10:18:26;;;;;;;6.65;3.38;;;;;;;;;;5059940;28;20090;-78
2024/03/21 10:21:15;;;;;;;8.32;3.08;;;;;;;;;;5057475;28;20050;-77
2024/03/21 10:24:02;;;;;;;6.80;2.92;;;;;;;;;;5067306;28;20032;-77
2024/03/21 10:26:47;;;;;;;6.30;3.78;;;;;;;;;;5064703;28;20102;-78
2024/03/21 10:29:32;;;;;;;8.23;3.95;;;;;;;;;;5060362;28;20074;-78
2024/03/21 10:32:22;;;;;;;7.95;4.18;;;;;;;;;;5067222;28;20061;-79
2024/03/21 10:35:07;;;;;;;;;;;;;;;;;;5071125;28;20035;-78
2024/03/21 10:37:52;;;;;;;6.82;3.38;;;;;;;;;;5066719;28;19913;-79
2024/03/21 10:40:38;;;;;;;8.40;4.10;;;;;;;;;;5070305;28;20401;-79
2024/03/21 10:43:24;;;;;;;11.65;4.50;;;;;;;;;;5062857;28;20032;-82
2024/03/21 10:46:10;;;;;;;9.73;4.85;;;;;;;;;;5069822;28;20036;-83
2024/03/21 10:48:57;;;;;;;7.82;4.30;;;;;;;;;;5065184;28;20024;-81
2024/03/21 10:51:45;;;;;;;9.73;4.70;;;;;;;;;;5067372;28;20089;-81
2024/03/21 10:54:37;;;;;;;10.48;5.63;;;;;;;;;;5073877;28;20475;-81
2024/03/21 10:57:24;;;;;;;10.20;5.13;;;;;;;;;;5065410;28;20063;-82
2024/03/21 11:00:12;;;;;;;12.15;6.00;;;;;;;;;;5069396;28;20028;-83
2024/03/21 11:02:59;;;;;;;10.70;5.50;;;;;;;;;;5070305;28;20024;-82
2024/03/21 11:05:46;;;;;;;7.00;4.60;;;;;;;;;;5071266;28;20037;-81
2024/03/21 11:08:31;;;;;;;12.30;5.82;;;;;;;;;;5078314;28;20107;-81
2024/03/21 11:11:17;;;;;;;9.10;5.32;;;;;;;;;;5065506;28;20358;-80
2024/03/21 11:14:02;;;;;;;12.18;5.97;;;;;;;;;;5070638;28;20043;-81
2024/03/21 11:16:52;;;;;;;11.57;5.78;;;;;;;;;;5067177;28;20099;-81
2024/03/21 11:19:37;;;;;;;9.10;4.70;;;;;;;;;;5070739;28;20099;-81
2024/03/21 11:22:23;;;;;;;8.43;4.30;;;;;;;;;;5071555;28;20407;-80
2024/03/21 11:25:08;;;;;;;5.50;4.00;;;;;;;;;;5077149;28;20300;-80
2024/03/21 11:27:54;;;;;;;8.95;4.93;;;;;;;;;;5068360;28;20051;-80
2024/03/21 11:30:43;;;;;;;8.05;4.13;;;;;;;;;;5066211;28;20479;-81
2024/03/21 11:33:29;;;;;;;6.43;3.22;;;;;;;;;;5070119;28;20666;-81
2024/03/21 11:36:15;;;;;;;7.15;4.65;;;;;;;;;;5068686;28;20032;-83
2024/03/21 11:39:01;;;;;;;10.85;4.25;;;;;;;;;;5082386;28;20115;-80
2024/03/21 11:41:47;;;;;;;8.52;4.43;;;;;;;;;;5070017;28;20107;-81
2024/03/21 11:44:33;;;;;;;8.77;5.10;;;;;;;;;;5073476;28;20024;-80
2024/03/21 11:47:18;;;;;;;7.93;5.75;;;;;;;;;;5083915;28;20070;-80
2024/03/21 11:50:03;;;;;;;11.38;5.85;;;;;;;;;;5067133;28;20770;-80
2024/03/21 11:52:48;;;;;;;9.45;4.65;;;;;;;;;;5069690;28;20050;-81
2024/03/21 11:55:33;;;;;;;10.80;5.22;;;;;;;;;;5064018;28;20024;-80
2024/03/21 11:58:19;;;;;;;9.82;5.03;;;;;;;;;;5067611;28;20037;-81
2024/03/21 12:01:06;;;;;;;7.65;4.10;;;;;;;;;;5079576;28;20056;-81
2024/03/21 12:03:51;;;;;;;9.20;4.80;;;;;;;;;;5067634;28;20028;-80
2024/03/21 12:06:36;;;;;;;9.57;5.15;;;;;;;;;;5063258;28;20515;-81
2024/03/21 12:09:21;;;;;;;10.43;6.82;;;;;;;;;;5052955;28;20040;-81
2024/03/21 12:12:14;;;;;;;8.98;5.15;;;;;;;;;;5067396;28;20040;-80
2024/03/21 12:14:59;;;;;;;11.27;6.22;;;;;;;;;;5075939;28;20136;-77
2024/03/21 12:17:44;;;;;;;11.40;6.95;;;;;;;;;;5061845;28;20138;-80
2024/03/21 12:20:30;;;;;;;14.73;8.32;;;;;;;;;;5072564;28;20056;-80
2024/03/21 12:23:15;;;;;;;10.35;6.85;;;;;;;;;;5069265;28;20527;-81
2024/03/21 12:26:01;;;;;;;12.02;6.80;;;;;;;;;;5060347;28;20056;-81
2024/03/21 12:28:46;;;;;;;13.10;7.95;;;;;;;;;;5067664;28;20028;-82
2024/03/21 12:31:32;;;;;;;11.20;6.10;;;;;;;;;;5071686;28;20020;-84
2024/03/21 12:34:17;;;;;;;10.55;6.10;;;;;;;;;;5085387;28;20479;-83
2024/03/21 12:37:04;;;;;;;13.23;7.50;;;;;;;;;;5072025;28;20038;-82
2024/03/21 12:39:49;;;;;;;11.88;6.65;;;;;;;;;;5063955;28;20055;-80
2024/03/21 12:42:35;;;;;;;13.82;6.45;;;;;;;;;;5061364;28;20043;-81
2024/03/21 12:45:20;;;;;;;10.35;6.18;;;;;;;;;;5065214;28;20075;-80
2024/03/21 12:48:06;;;;;;;9.75;5.85;;;;;;;;;;5066843;28;20017;-81
2024/03/21 12:50:51;;;;;;;18.63;7.25;;;;;;;;;;5062948;28;20028;-79
2024/03/21 12:53:36;;;;;;;12.60;7.97;;;;;;;;;;5083380;28;20210;-83
2024/03/21 12:56:22;;;;;;;11.02;7.13;;;;;;;;;;5066837;28;20016;-82
2024/03/21 12:59:07;;;;;;;9.50;6.18;;;;;;;;;;5071630;28;20031;-82
2024/03/21 13:01:52;;;;;;;10.80;6.03;;;;;;;;;;5059946;28;20044;-80
2024/03/21 13:04:38;;;;;;;9.48;5.90;;;;;;;;;;5060576;28;20025;-79
2024/03/21 13:07:23;;;;;;;13.57;5.70;;;;;;;;;;5077064;28;20032;-80
2024/03/21 13:10:08;;;;;;;13.82;6.57;;;;;;;;;;5067272;28;20028;-80
2024/03/21 13:12:54;;;;;;;11.60;5.78;;;;;;;;;;5067365;28;20024;-80
2024/03/21 13:15:39;;;;;;;10.57;5.78;;;;;;;;;;5059496;28;20027;-80
2024/03/21 13:18:24;;;;;;;10.73;4.80;;;;;;;;;;5070466;28;20450;-80
2024/03/21 13:21:10;;;;;;;9.98;5.22;;;;;;;;;;5063619;28;20028;-81
2024/03/21 13:23:55;;;;;;;8.70;5.18;;;;;;;;;;5065036;28;21549;-81
2024/03/21 13:26:40;;;;;;;9.00;5.05;;;;;;;;;;5061593;28;20177;-80
2024/03/21 13:29:25;;;;;;;9.85;5.50;;;;;;;;;;5061769;28;20115;-80
2024/03/21 13:32:11;;;;;;;9.25;4.70;;;;;;;;;;5061841;28;20029;-81
2024/03/21 13:34:56;;;;;;;9.15;5.43;;;;;;;;;;5065234;28;20432;-82
2024/03/21 13:37:42;;;;;;;9.43;6.07;;;;;;;;;;5063943;28;20024;-81
2024/03/21 13:40:28;;;;;;;11.23;5.20;;;;;;;;;;5069545;28;20016;-81
2024/03/21 13:43:14;;;;;;;12.57;4.85;;;;;;;;;;5082276;28;20059;-81
2024/03/21 13:46:02;;;;;;;8.82;4.75;;;;;;;;;;5063588;28;20086;-82
2024/03/21 13:48:47;;;;;;;9.70;4.55;;;;;;;;;;5066983;28;20042;-81
2024/03/21 13:51:32;;;;;;;12.73;5.80;;;;;;;;;;5067336;28;20077;-80
2024/03/21 13:54:18;;;;;;;10.40;5.50;;;;;;;;;;5066861;28;20080;-82
2024/03/21 13:57:05;;;;;;;11.95;6.70;;;;;;;;;;5064391;28;20032;-81
2024/03/21 13:59:53;;;;;;;17.90;14.25;;;;;;;;;;5064056;28;20036;-82
2024/03/21 14:02:38;;;;;;;21.50;16.52;;;;;;;;;;5059879;28;20035;-83
2024/03/21 14:05:27;;;;;;;25.27;17.67;;;;;;;;;;5059058;28;20016;-82
2024/03/21 14:08:12;;;;;;;28.48;21.52;;;;;;;;;;5067870;28;20024;-82
2024/03/21 14:10:57;;;;;;;31.10;24.02;;;;;;;;;;5068881;28;20028;-83
2024/03/21 14:13:51;;;;;;;29.05;23.02;;;;;;;;;;5058200;28;20051;-82
2024/03/21 14:16:36;;;;;;;33.17;24.85;;;;;;;;;;5047535;28;20474;-81
2024/03/21 14:19:21;;;;;;;36.92;27.02;;;;;;;;;;5041818;28;20025;-81
2024/03/21 14:22:07;;;;;;;38.67;26.23;;;;;;;;;;5039954;28;20108;-82
2024/03/21 14:24:52;;;;;;;38.40;29.23;;;;;;;;;;5041491;28;20024;-83
2024/03/21 14:27:37;;;;;;;35.40;26.88;;;;;;;;;;5061270;28;20043;-83
2024/03/21 14:30:24;;;;;;;37.70;26.48;;;;;;;;;;5047494;28;20498;-84
2024/03/21 14:33:10;;;;;;;34.38;24.90;;;;;;;;;;5062323;28;20029;-83
2024/03/21 14:35:56;;;;;;;31.63;23.00;;;;;;;;;;5047071;28;20032;-83
2024/03/21 14:38:41;;;;;;;33.22;22.17;;;;;;;;;;5048174;28;20029;-85
2024/03/21 14:41:26;;;;;;;32.45;23.58;;;;;;;;;;5042339;28;20072;-84
2024/03/21 14:44:12;;;;;;;31.05;20.42;;;;;;;;;;5054646;28;20035;-84
2024/03/21 14:46:58;;;;;;;28.63;20.27;;;;;;;;;;5042755;28;20043;-85
2024/03/21 14:49:43;;;;;;;27.52;20.52;;;;;;;;;;5071899;28;20083;-84
2024/03/21 14:52:29;;;;;;;26.48;19.10;;;;;;;;;;5060349;28;20029;-83
2024/03/21 14:55:14;;;;;;;21.42;16.42;;;;;;;;;;5049250;28;20020;-87
2024/03/21 14:58:02;;;;;;;24.45;19.48;;;;;;;;;;5053311;28;20016;-85
2024/03/21 15:00:48;;;;;;;34.15;21.70;;;;;;;;;;5055137;28;20029;-86
2024/03/21 15:03:33;;;;;;;32.35;22.20;;;;;;;;;;5052018;28;20024;-86
2024/03/21 15:06:18;;;;;;;29.05;21.05;;;;;;;;;;5048012;28;20156;-84
2024/03/21 15:09:04;;;;;;;25.40;18.63;;;;;;;;;;5063494;28;20490;-84
2024/03/21 15:11:49;;;;;;;25.80;18.75;;;;;;;;;;5047354;28;20036;-83
2024/03/21 15:14:34;;;;;;;24.00;16.98;;;;;;;;;;5047527;28;20051;-83
2024/03/21 15:17:19;;;;;;;24.73;16.63;;;;;;;;;;5067422;28;20340;-83
2024/03/21 15:20:05;;;;;;;23.02;15.93;;;;;;;;;;5056198;28;20774;-84
2024/03/21 15:22:50;;;;;;;22.70;15.73;;;;;;;;;;5046825;28;20037;-84
2024/03/21 15:25:36;;;;;;;24.20;15.73;;;;;;;;;;5063363;28;20113;-80
2024/03/21 15:28:21;;;;;;;21.48;14.32;;;;;;;;;;5034234;28;20029;-81
2024/03/21 15:31:06;;;;;;;21.65;14.52;;;;;;;;;;5046052;28;20032;-80
2024/03/21 15:33:52;;;;;;;17.77;12.50;;;;;;;;;;5054374;28;20482;-80
2024/03/21 15:36:37;;;;;;;19.25;12.27;;;;;;;;;;5044273;28;20044;-83
2024/03/21 15:39:23;;;;;;;19.67;12.43;;;;;;;;;;5037550;28;20021;-84
2024/03/21 15:42:20;;;;;;;22.63;11.30;;;;;;;;;;5064113;28;20021;-86
2024/03/21 15:45:05;;;;;;;18.75;12.20;;;;;;;;;;5057237;28;20111;-85
2024/03/21 15:47:51;;;;;;;18.95;11.35;;;;;;;;;;5045951;28;20040;-85
2024/03/21 15:50:36;;;;;;;16.30;10.82;;;;;;;;;;5056088;28;20475;-84
2024/03/21 15:53:22;;;;;;;16.75;11.50;;;;;;;;;;5040673;28;20041;-84
2024/03/21 15:56:07;;;;;;;21.48;12.77;;;;;;;;;;5038159;28;20040;-85
2024/03/21 15:58:53;;;;;;;14.00;9.68;;;;;;;;;;5042496;28;20037;-85
2024/03/21 16:01:38;;;;;;;18.27;10.63;;;;;;;;;;5047253;28;20107;-85
2024/03/21 16:04:23;;;;;;;14.57;10.02;;;;;;;;;;5051127;28;20082;-85
2024/03/21 16:07:08;;;;;;;17.25;10.80;;;;;;;;;;5049753;28;20024;-84
2024/03/21 16:09:54;;;;;;;17.02;11.75;;;;;;;;;;5051423;28;20039;-84
2024/03/21 16:12:40;;;;;;;18.42;11.55;;;;;;;;;;5051829;28;20442;-84
2024/03/21 16:15:27;;;;;;;16.27;10.05;;;;;;;;;;5041626;28;20025;-84
2024/03/21 16:18:12;;;;;;;17.58;10.55;;;;;;;;;;5040985;28;20079;-84
2024/03/21 16:20:57;;;;;;;15.05;10.43;;;;;;;;;;5052909;28;20029;-84
2024/03/21 16:23:42;;;;;;;14.90;10.38;;;;;;;;;;5047574;28;20498;-84
2024/03/21 16:26:28;;;;;;;15.98;10.40;;;;;;;;;;5041432;28;20353;-84
2024/03/21 16:29:13;;;;;;;14.68;10.63;;;;;;;;;;5043808;28;20086;-83